Terminal Aerodrome Forecast
Issued by NWS Charleston, WV

Current Version | Previous Version | Graphics & Text | Print | Product List | Glossary On
Versions: 1 2 3 4 5 6 7 8 9 10 11 12 13 14 15 16 17 18 19 20 21 22 23
809
FTUS41 KRLX 151120
TAFEKN
TAF
KEKN 151120Z 1512/1612 00000KT 3SM BR FEW040
      TEMPO 1512/1513 1SM BR SCT002
     FM151400 23009G19KT P6SM FEW120
     FM152200 24009KT P6SM BKN025
     FM160000 25009G17KT 6SM SHRA BR OVC008
     FM160300 30008KT 3SM SHRA BR OVC004
     FM160400 30008KT 3SM BR BKN003
     FM160800 31008KT 1/2SM FG OVC001=

USA.gov is the U.S. government's official web portal to all federal, state and local government web resources and services.